Aérodrome :
LOGIN :

S'inscrire | Disclaimer

   EN    FR    IT 

 










Légende :    VFR   VFR Marginal   IFR   IFR Intensif   IFR Très Intensif
Visi : 
Plafond : 
>= 8 km
>= 3000ft
5 à 8 km
1000 à 3000 ft
1500m à 5 km
500 à 1000 ft
800 à 1500m
200 à 500 ft
< 800m
< 200 ft
Symboles :   Orages  Brouillard  Fortes neiges  Fortes précipitations  Vent > 20 kt
SIGMETs :   Divers  Orages  Givrage  Turbulence  Onde Orograph.  Cendres Volcan.






- Altitude de l'aérodrome : 160 ft
- Code IATA : FMO


EDDG - Münster Osnabrück Int.

DERNIER METAR :
  • 130650Z 13008KT 080V160 9999 BKN026 03/M01 Q0976 NOSIG

METARs EXPIRÉS :
  • 130620Z 12009KT 030V190 9999 BKN030 03/M01 Q0976 NOSIG
  • 130550Z 13008KT 070V160 9999 BKN027 03/M01 Q0977 NOSIG
  • 130520Z 13009KT 070V170 9999 BKN030 02/M01 Q0977 NOSIG
  • 130450Z 13008KT 070V150 9999 -RA SCT030 02/M01 Q0978 NOSIG
  • 130420Z 13010KT 080V160 9999 -RA SCT030 02/M01 Q0978 NOSIG

TAF TAF EDDG
Valide du 13 à 06h jusqu'au 14 à 06h UTC


130500Z 1306/1406 13008KT 9999 SCT040
BECMG 1309/1312 BKN012
BECMG 1312/1315 22007KT
TEMPO 1312/1324 4000 -RADZ BKN008



MET'MAP, la Météo Aéronautique d'un coup d'oeil ! - Copyright ORBIFLY Décembre 2007 - Disclaimer

ORBIFLY MET'MAP TEAM :

Programmation & Développement : Alexandra Zaïnal
Sur une idée originale de : Baudouin d'Aumeries
Assistance à la programmation : Marc-Olivier Méhu
Soutien technique & logistique : Manuel Goepfert

Contact : metmap@orbifly.com




SOURCES & CREDITS :

   NOAA